createdAt,value
2023-03-06T20:49:22.753Z,93808.00
2023-03-06T20:51:50.344Z,93800.59
2023-03-06T20:54:17.426Z,93799.59
2023-03-06T20:56:47.425Z,93793.09
2023-03-06T20:59:14.519Z,93798.34
2023-03-06T21:01:43.729Z,93798.88
2023-03-06T21:04:13.539Z,93801.25
2023-03-06T21:06:43.915Z,93794.22
2023-03-06T21:09:11.303Z,93786.94
2023-03-06T21:11:38.117Z,93791.47
2023-03-06T21:14:05.368Z,93788.16
2023-03-06T21:16:32.157Z,93781.66
2023-03-06T21:19:00.272Z,93780.63
2023-03-06T21:21:29.437Z,93787.41
2023-03-06T21:23:58.003Z,93778.56
2023-03-06T21:26:27.305Z,93773.34
2023-03-06T21:28:54.725Z,93774.13
2023-03-06T21:31:22.624Z,93775.97
2023-03-06T21:33:50.285Z,93781.97
2023-03-06T21:36:18.798Z,93778.56
2023-03-06T21:38:46.515Z,93773.56
2023-03-06T21:41:16.580Z,93773.34
2023-03-06T21:43:43.484Z,93770.97
2023-03-06T21:46:11.220Z,93766.00
2023-03-06T21:48:38.381Z,93763.59
2023-03-06T21:51:07.575Z,93756.81
2023-03-06T21:53:35.015Z,93757.59
2023-03-06T21:56:02.108Z,93762.03
2023-03-06T21:58:30.292Z,93756.81
2023-03-06T22:00:57.407Z,93755.22
2023-03-06T22:03:24.640Z,93750.47
2023-03-06T22:05:53.093Z,93758.53
2023-03-06T22:08:28.126Z,93745.47
2023-03-06T22:10:55.040Z,93742.84
2023-03-06T22:13:22.962Z,93746.50
2023-03-06T22:15:52.501Z,93740.50
2023-03-06T22:18:19.144Z,93730.28
2023-03-06T22:20:45.864Z,93733.66
2023-03-06T22:23:12.687Z,93743.66
2023-03-06T22:25:39.503Z,93736.13
2023-03-06T22:28:06.428Z,93727.03
2023-03-06T22:30:33.058Z,93736.22
2023-03-06T22:33:01.297Z,93739.41
2023-03-06T22:35:28.282Z,93726.34
2023-03-06T22:37:55.025Z,93734.69
2023-03-06T22:40:21.867Z,93728.47
2023-03-06T22:42:48.564Z,93727.69
2023-03-06T22:45:15.365Z,93730.81
2023-03-06T22:47:42.544Z,93724.81
2023-03-06T22:50:11.863Z,93721.19
2023-03-06T22:52:38.602Z,93716.97
2023-03-06T22:55:06.544Z,93710.97
2023-03-06T22:57:33.402Z,93707.78
2023-03-06T23:00:00.113Z,93710.19
2023-03-06T23:02:32.446Z,93702.34
2023-03-06T23:04:59.115Z,93700.75
2023-03-06T23:07:27.119Z,93694.50
2023-03-06T23:10:00.445Z,93691.13
2023-03-06T23:12:45.560Z,93692.69
2023-03-06T23:15:30.992Z,93695.06
2023-03-06T23:18:16.535Z,93689.03
2023-03-06T23:21:06.025Z,93691.91
2023-03-06T23:23:54.282Z,93686.34
2023-03-06T23:26:23.491Z,93684.00
2023-03-06T23:28:51.066Z,93681.38
2023-03-06T23:31:20.088Z,93689.78
2023-03-06T23:33:47.891Z,93679.31
2023-03-06T23:36:16.566Z,93680.91
2023-03-06T23:38:43.947Z,93679.56
2023-03-06T23:41:13.769Z,93680.81
2023-03-06T23:43:40.484Z,93686.75
2023-03-06T23:46:07.704Z,93686.69
2023-03-06T23:48:35.856Z,93686.59
2023-03-06T23:51:05.566Z,93682.34
2023-03-06T23:53:32.167Z,93686.69
2023-03-06T23:55:58.948Z,93688.44
2023-03-06T23:58:27.034Z,93690.19
